메인 페이지
METAR-TAF:

METAR-TAF

공항 :

충칭, 중국

충칭 장베이 국제공항

위도: 29-31N, 경도: 106-29E, 고도: 351m

현재 날씨관측

예보는 1 시간 7분 전, 00:00시(UTC)에 발표되었습니다.
6kt
온도 10°C
습도 87%
기압 1016 hPa
시정: 2600m
고도 3000ft 상공 구름 보통
고도 5000ft 상공 흐림
박무

METAR: ZUCK 180000Z 36003MPS 2600 BR SCT030 OVC050 10/08 Q1016 BECMG TL0130 3500

시각: 09:07 (01:07 UTC)

예보

예보는 5 시간 58분 전, 19:09시(UTC)에 발표되었습니다.
예보 대상 시간: 18일 00시부터 18일 24시까지 (UTC)
6kt
시정: 3500m
고도 4000ft 상공 구름 보통
박무
일시적
18일 18시부터 18일 24시까지 (UTC)
약한비

TAF: ZUCK 171909Z 1800/1824 28003MPS 3500 BR SCT040 TX13/1808Z TN09/1823Z TEMPO 1818/1824 -RA

4,000개 이상의 공항 관측 자료 및 예보 (METAR 및 TAF 보고).

지도상에서 검색 가능한 기상관측소가 노란 점과 빨간 점으로 표시되어 있습니다.

기상관측소 명을 보려면 표시 위로 마우스를 이동하세요.

날씨 관측과 예보를 보려면 클릭하세요.

지도 변경 : 확대하려면 엑스 표시가 있는 녹색 버튼, 축소하려면 빼기 표시가 있는 녹색 버튼, 다음 페이지의 지도를 보려면 녹색 화살표를 클릭하세요.


METAR-TAF: